logo
Rechercher aéroport 
image banner adimage banner adimage banner ad
image banner ad

FAWV - White River

Situé à , South Africa

ICAO - , IATA -

Données fournies par Airmate  

Information générale

Coordonnées: S25°19'38" E30°58'38"
Élévation : 2965 feet MSL.
 
Voir autres Aéroports à Mpumalanga

Données opérationnelles

Special qualification required
Heure actuelle UTC:
Heure actuelle locale:
METAR: FAKN 172300Z AUTO 05006KT //// // ////// 17/14 Q1025
Voir NOTAMs / SUP AIP / TFR affectant cet aéroport [VIEW]
Fréquences de communication: [VIEW]

Pistes:

Identifiant RWYQFULongueur (ft)Largeur (ft)SurfaceLDA (ft)
1029°164066SAND
28209°164066SAND

Coordonnées de l'aéroport

Adresse: South Africa

Vue satellite de FAWV